sensor_id;sensor_type;location;lat;lon;timestamp;P1;durP1;ratioP1;P2;durP2;ratioP2
14231;SDS011;7200;52.194;9.900;2023-03-03T00:01:51;2.90;;;2.20;;
14231;SDS011;7200;52.194;9.900;2023-03-03T00:04:16;0.10;;;0.10;;
14231;SDS011;7200;52.194;9.900;2023-03-03T00:06:43;1.63;;;1.63;;
14231;SDS011;7200;52.194;9.900;2023-03-03T00:09:09;3.50;;;3.40;;
14231;SDS011;7200;52.194;9.900;2023-03-03T00:11:34;0.20;;;0.20;;
14231;SDS011;7200;52.194;9.900;2023-03-03T00:14:00;0.17;;;0.17;;
14231;SDS011;7200;52.194;9.900;2023-03-03T00:16:27;0.10;;;0.10;;
14231;SDS011;7200;52.194;9.900;2023-03-03T00:18:55;0.10;;;0.10;;
14231;SDS011;7200;52.194;9.900;2023-03-03T00:21:25;0.37;;;0.37;;
14231;SDS011;7200;52.194;9.900;2023-03-03T00:26:40;0.60;;;0.60;;
14231;SDS011;7200;52.194;9.900;2023-03-03T00:32:00;5.30;;;4.80;;
14231;SDS011;7200;52.194;9.900;2023-03-03T00:34:40;0.10;;;0.10;;
14231;SDS011;7200;52.194;9.900;2023-03-03T00:39:53;1.07;;;1.07;;
14231;SDS011;7200;52.194;9.900;2023-03-03T00:42:26;0.57;;;0.57;;
14231;SDS011;7200;52.194;9.900;2023-03-03T00:44:56;2.03;;;1.53;;
14231;SDS011;7200;52.194;9.900;2023-03-03T00:49:50;0.30;;;0.30;;
14231;SDS011;7200;52.194;9.900;2023-03-03T00:52:17;0.83;;;0.83;;
14231;SDS011;7200;52.194;9.900;2023-03-03T00:54:43;0.33;;;0.33;;
14231;SDS011;7200;52.194;9.900;2023-03-03T00:57:10;1.27;;;1.27;;
14231;SDS011;7200;52.194;9.900;2023-03-03T00:59:38;0.50;;;0.50;;
14231;SDS011;7200;52.194;9.900;2023-03-03T01:02:04;10.00;;;3.60;;
14231;SDS011;7200;52.194;9.900;2023-03-03T01:04:30;1.80;;;1.70;;
14231;SDS011;7200;52.194;9.900;2023-03-03T01:06:56;0.70;;;0.70;;
14231;SDS011;7200;52.194;9.900;2023-03-03T01:09:21;0.10;;;0.10;;
14231;SDS011;7200;52.194;9.900;2023-03-03T01:11:47;0.10;;;0.10;;
14231;SDS011;7200;52.194;9.900;2023-03-03T01:14:13;0.33;;;0.33;;
14231;SDS011;7200;52.194;9.900;2023-03-03T01:16:39;3.90;;;2.17;;
14231;SDS011;7200;52.194;9.900;2023-03-03T01:19:05;9.07;;;3.80;;
14231;SDS011;7200;52.194;9.900;2023-03-03T01:21:31;1.60;;;1.27;;
14231;SDS011;7200;52.194;9.900;2023-03-03T01:23:56;2.23;;;2.07;;
14231;SDS011;7200;52.194;9.900;2023-03-03T01:26:21;1.33;;;1.33;;
14231;SDS011;7200;52.194;9.900;2023-03-03T01:28:47;0.10;;;0.10;;
14231;SDS011;7200;52.194;9.900;2023-03-03T01:31:12;0.47;;;0.47;;
14231;SDS011;7200;52.194;9.900;2023-03-03T01:33:37;2.03;;;1.93;;
14231;SDS011;7200;52.194;9.900;2023-03-03T01:36:03;0.37;;;0.37;;
14231;SDS011;7200;52.194;9.900;2023-03-03T01:38:29;0.43;;;0.43;;
14231;SDS011;7200;52.194;9.900;2023-03-03T01:40:55;0.37;;;0.37;;
14231;SDS011;7200;52.194;9.900;2023-03-03T01:43:26;1.13;;;0.90;;
14231;SDS011;7200;52.194;9.900;2023-03-03T01:48:30;3.97;;;1.83;;
14231;SDS011;7200;52.194;9.900;2023-03-03T01:53:27;19.00;;;2.57;;
14231;SDS011;7200;52.194;9.900;2023-03-03T01:55:58;0.90;;;0.90;;
14231;SDS011;7200;52.194;9.900;2023-03-03T01:58:26;2.83;;;2.67;;
14231;SDS011;7200;52.194;9.900;2023-03-03T02:00:57;0.10;;;0.10;;
14231;SDS011;7200;52.194;9.900;2023-03-03T02:03:26;0.10;;;0.10;;
14231;SDS011;7200;52.194;9.900;2023-03-03T02:05:53;0.90;;;0.90;;
14231;SDS011;7200;52.194;9.900;2023-03-03T02:08:22;0.57;;;0.57;;
14231;SDS011;7200;52.194;9.900;2023-03-03T02:10:54;2.03;;;1.93;;
14231;SDS011;7200;52.194;9.900;2023-03-03T02:13:21;2.27;;;2.07;;
14231;SDS011;7200;52.194;9.900;2023-03-03T02:15:46;2.43;;;2.23;;
14231;SDS011;7200;52.194;9.900;2023-03-03T02:18:13;3.67;;;2.20;;
14231;SDS011;7200;52.194;9.900;2023-03-03T02:20:43;3.23;;;2.97;;
14231;SDS011;7200;52.194;9.900;2023-03-03T02:26:29;1.90;;;1.50;;
14231;SDS011;7200;52.194;9.900;2023-03-03T02:28:56;0.20;;;0.20;;
14231;SDS011;7200;52.194;9.900;2023-03-03T02:31:23;0.10;;;0.10;;
14231;SDS011;7200;52.194;9.900;2023-03-03T02:33:51;0.10;;;0.10;;
14231;SDS011;7200;52.194;9.900;2023-03-03T02:36:18;11.13;;;2.83;;
14231;SDS011;7200;52.194;9.900;2023-03-03T02:44:21;3.30;;;2.70;;
14231;SDS011;7200;52.194;9.900;2023-03-03T02:46:49;5.90;;;5.07;;
14231;SDS011;7200;52.194;9.900;2023-03-03T02:49:17;0.20;;;0.20;;
14231;SDS011;7200;52.194;9.900;2023-03-03T02:51:47;7.50;;;3.57;;
14231;SDS011;7200;52.194;9.900;2023-03-03T02:54:14;1.93;;;1.83;;
14231;SDS011;7200;52.194;9.900;2023-03-03T02:56:40;30.90;;;3.50;;
14231;SDS011;7200;52.194;9.900;2023-03-03T02:59:06;1.03;;;1.00;;
14231;SDS011;7200;52.194;9.900;2023-03-03T03:01:32;0.67;;;0.50;;
14231;SDS011;7200;52.194;9.900;2023-03-03T03:04:02;10.83;;;4.73;;
14231;SDS011;7200;52.194;9.900;2023-03-03T03:06:48;0.10;;;0.10;;
14231;SDS011;7200;52.194;9.900;2023-03-03T03:09:14;18.00;;;5.27;;
14231;SDS011;7200;52.194;9.900;2023-03-03T03:11:40;1.13;;;1.13;;
14231;SDS011;7200;52.194;9.900;2023-03-03T03:14:07;18.97;;;5.83;;
14231;SDS011;7200;52.194;9.900;2023-03-03T03:16:33;13.23;;;6.03;;
14231;SDS011;7200;52.194;9.900;2023-03-03T03:18:59;26.67;;;7.37;;
14231;SDS011;7200;52.194;9.900;2023-03-03T03:21:25;5.37;;;3.00;;
14231;SDS011;7200;52.194;9.900;2023-03-03T03:23:51;3.30;;;2.43;;
14231;SDS011;7200;52.194;9.900;2023-03-03T03:26:16;15.63;;;5.27;;
14231;SDS011;7200;52.194;9.900;2023-03-03T03:28:42;0.37;;;0.37;;
14231;SDS011;7200;52.194;9.900;2023-03-03T03:31:07;0.10;;;0.10;;
14231;SDS011;7200;52.194;9.900;2023-03-03T03:33:33;6.07;;;2.00;;
14231;SDS011;7200;52.194;9.900;2023-03-03T03:35:59;2.20;;;1.97;;
14231;SDS011;7200;52.194;9.900;2023-03-03T03:38:24;0.83;;;0.83;;
14231;SDS011;7200;52.194;9.900;2023-03-03T03:40:51;0.10;;;0.10;;
14231;SDS011;7200;52.194;9.900;2023-03-03T03:43:17;0.30;;;0.30;;
14231;SDS011;7200;52.194;9.900;2023-03-03T03:45:42;0.60;;;0.60;;
14231;SDS011;7200;52.194;9.900;2023-03-03T03:48:07;2.67;;;0.67;;
14231;SDS011;7200;52.194;9.900;2023-03-03T03:50:33;2.70;;;1.53;;
14231;SDS011;7200;52.194;9.900;2023-03-03T03:52:58;0.53;;;0.53;;
14231;SDS011;7200;52.194;9.900;2023-03-03T03:55:24;0.10;;;0.10;;
14231;SDS011;7200;52.194;9.900;2023-03-03T03:57:49;0.00;;;0.00;;
14231;SDS011;7200;52.194;9.900;2023-03-03T04:00:15;0.77;;;0.77;;
14231;SDS011;7200;52.194;9.900;2023-03-03T04:02:40;1.23;;;1.23;;
14231;SDS011;7200;52.194;9.900;2023-03-03T04:05:05;0.27;;;0.27;;
14231;SDS011;7200;52.194;9.900;2023-03-03T04:07:31;1.07;;;1.03;;
14231;SDS011;7200;52.194;9.900;2023-03-03T04:09:57;4.03;;;3.20;;
14231;SDS011;7200;52.194;9.900;2023-03-03T04:12:22;1.33;;;1.23;;
14231;SDS011;7200;52.194;9.900;2023-03-03T04:14:47;1.73;;;1.63;;
14231;SDS011;7200;52.194;9.900;2023-03-03T04:17:19;0.93;;;0.93;;
14231;SDS011;7200;52.194;9.900;2023-03-03T04:19:46;0.30;;;0.30;;
14231;SDS011;7200;52.194;9.900;2023-03-03T04:22:12;0.10;;;0.10;;
14231;SDS011;7200;52.194;9.900;2023-03-03T04:24:39;0.30;;;0.30;;
14231;SDS011;7200;52.194;9.900;2023-03-03T04:27:05;0.10;;;0.10;;
14231;SDS011;7200;52.194;9.900;2023-03-03T04:29:33;0.10;;;0.10;;
14231;SDS011;7200;52.194;9.900;2023-03-03T04:31:59;0.10;;;0.10;;
14231;SDS011;7200;52.194;9.900;2023-03-03T04:34:24;0.70;;;0.70;;
14231;SDS011;7200;52.194;9.900;2023-03-03T04:36:49;0.10;;;0.10;;
14231;SDS011;7200;52.194;9.900;2023-03-03T04:39:15;0.47;;;0.47;;
14231;SDS011;7200;52.194;9.900;2023-03-03T04:41:40;0.10;;;0.10;;
14231;SDS011;7200;52.194;9.900;2023-03-03T04:44:06;0.10;;;0.10;;
14231;SDS011;7200;52.194;9.900;2023-03-03T04:46:31;0.97;;;0.97;;
14231;SDS011;7200;52.194;9.900;2023-03-03T04:48:56;0.97;;;0.97;;
14231;SDS011;7200;52.194;9.900;2023-03-03T04:51:22;0.63;;;0.57;;
14231;SDS011;7200;52.194;9.900;2023-03-03T04:53:47;0.40;;;0.40;;
14231;SDS011;7200;52.194;9.900;2023-03-03T04:56:12;0.10;;;0.10;;
14231;SDS011;7200;52.194;9.900;2023-03-03T04:58:38;3.83;;;2.13;;
14231;SDS011;7200;52.194;9.900;2023-03-03T05:01:03;0.20;;;0.20;;
14231;SDS011;7200;52.194;9.900;2023-03-03T05:03:29;9.13;;;1.87;;
14231;SDS011;7200;52.194;9.900;2023-03-03T05:05:54;7.30;;;1.53;;
14231;SDS011;7200;52.194;9.900;2023-03-03T05:08:19;1.13;;;0.87;;
14231;SDS011;7200;52.194;9.900;2023-03-03T05:10:45;0.10;;;0.10;;
14231;SDS011;7200;52.194;9.900;2023-03-03T05:13:10;0.77;;;0.77;;
14231;SDS011;7200;52.194;9.900;2023-03-03T05:15:35;0.97;;;0.97;;
14231;SDS011;7200;52.194;9.900;2023-03-03T05:18:01;1.37;;;1.37;;
14231;SDS011;7200;52.194;9.900;2023-03-03T05:20:27;0.10;;;0.10;;
14231;SDS011;7200;52.194;9.900;2023-03-03T05:22:52;0.20;;;0.20;;
14231;SDS011;7200;52.194;9.900;2023-03-03T05:25:18;3.30;;;1.27;;
14231;SDS011;7200;52.194;9.900;2023-03-03T05:27:44;0.57;;;0.57;;
14231;SDS011;7200;52.194;9.900;2023-03-03T05:30:10;0.10;;;0.10;;
14231;SDS011;7200;52.194;9.900;2023-03-03T05:32:36;0.80;;;0.80;;
14231;SDS011;7200;52.194;9.900;2023-03-03T05:35:02;0.20;;;0.20;;
14231;SDS011;7200;52.194;9.900;2023-03-03T05:37:28;0.20;;;0.20;;
14231;SDS011;7200;52.194;9.900;2023-03-03T05:39:53;0.47;;;0.47;;
14231;SDS011;7200;52.194;9.900;2023-03-03T05:42:18;0.10;;;0.10;;
14231;SDS011;7200;52.194;9.900;2023-03-03T05:44:44;0.27;;;0.27;;
14231;SDS011;7200;52.194;9.900;2023-03-03T05:47:09;0.47;;;0.47;;
14231;SDS011;7200;52.194;9.900;2023-03-03T05:49:34;1.60;;;0.47;;
14231;SDS011;7200;52.194;9.900;2023-03-03T05:52:00;0.10;;;0.10;;
14231;SDS011;7200;52.194;9.900;2023-03-03T05:54:25;0.10;;;0.10;;
14231;SDS011;7200;52.194;9.900;2023-03-03T05:56:51;0.10;;;0.10;;
14231;SDS011;7200;52.194;9.900;2023-03-03T05:59:16;0.30;;;0.30;;
14231;SDS011;7200;52.194;9.900;2023-03-03T06:01:41;4.03;;;1.07;;
14231;SDS011;7200;52.194;9.900;2023-03-03T06:04:06;7.63;;;3.60;;
14231;SDS011;7200;52.194;9.900;2023-03-03T06:06:32;2.80;;;1.83;;
14231;SDS011;7200;52.194;9.900;2023-03-03T06:08:58;0.10;;;0.10;;
14231;SDS011;7200;52.194;9.900;2023-03-03T06:11:23;0.27;;;0.27;;
14231;SDS011;7200;52.194;9.900;2023-03-03T06:13:48;0.40;;;0.40;;
14231;SDS011;7200;52.194;9.900;2023-03-03T06:16:14;1.97;;;1.90;;
14231;SDS011;7200;52.194;9.900;2023-03-03T06:18:39;0.30;;;0.20;;
14231;SDS011;7200;52.194;9.900;2023-03-03T06:21:04;1.03;;;1.03;;
14231;SDS011;7200;52.194;9.900;2023-03-03T06:23:30;0.10;;;0.10;;
14231;SDS011;7200;52.194;9.900;2023-03-03T06:25:55;0.10;;;0.10;;
14231;SDS011;7200;52.194;9.900;2023-03-03T06:28:21;0.73;;;0.73;;
14231;SDS011;7200;52.194;9.900;2023-03-03T06:30:46;3.47;;;3.17;;
14231;SDS011;7200;52.194;9.900;2023-03-03T06:33:11;0.10;;;0.10;;
14231;SDS011;7200;52.194;9.900;2023-03-03T06:35:37;0.40;;;0.40;;
14231;SDS011;7200;52.194;9.900;2023-03-03T06:38:02;0.10;;;0.10;;
14231;SDS011;7200;52.194;9.900;2023-03-03T06:40:27;0.67;;;0.67;;
14231;SDS011;7200;52.194;9.900;2023-03-03T06:42:53;0.10;;;0.10;;
14231;SDS011;7200;52.194;9.900;2023-03-03T06:45:18;3.40;;;1.37;;
14231;SDS011;7200;52.194;9.900;2023-03-03T06:47:43;3.87;;;3.63;;
14231;SDS011;7200;52.194;9.900;2023-03-03T06:50:09;0.10;;;0.10;;
14231;SDS011;7200;52.194;9.900;2023-03-03T06:52:36;1.53;;;1.43;;
14231;SDS011;7200;52.194;9.900;2023-03-03T06:55:08;0.10;;;0.10;;
14231;SDS011;7200;52.194;9.900;2023-03-03T06:57:36;0.10;;;0.10;;
14231;SDS011;7200;52.194;9.900;2023-03-03T07:02:39;0.10;;;0.10;;
14231;SDS011;7200;52.194;9.900;2023-03-03T07:05:06;1.57;;;1.47;;
14231;SDS011;7200;52.194;9.900;2023-03-03T07:07:38;0.70;;;0.70;;
14231;SDS011;7200;52.194;9.900;2023-03-03T07:10:05;0.20;;;0.20;;
14231;SDS011;7200;52.194;9.900;2023-03-03T07:12:40;0.63;;;0.63;;
14231;SDS011;7200;52.194;9.900;2023-03-03T07:17:43;0.10;;;0.10;;
14231;SDS011;7200;52.194;9.900;2023-03-03T07:20:21;0.97;;;0.97;;
14231;SDS011;7200;52.194;9.900;2023-03-03T07:22:48;0.10;;;0.10;;
14231;SDS011;7200;52.194;9.900;2023-03-03T07:25:18;0.10;;;0.10;;
14231;SDS011;7200;52.194;9.900;2023-03-03T07:27:55;0.97;;;0.97;;
14231;SDS011;7200;52.194;9.900;2023-03-03T07:30:27;0.10;;;0.10;;
14231;SDS011;7200;52.194;9.900;2023-03-03T07:32:54;2.33;;;2.13;;
14231;SDS011;7200;52.194;9.900;2023-03-03T07:41:00;0.47;;;0.40;;
14231;SDS011;7200;52.194;9.900;2023-03-03T07:43:30;0.30;;;0.30;;
14231;SDS011;7200;52.194;9.900;2023-03-03T07:46:00;13.57;;;4.83;;
14231;SDS011;7200;52.194;9.900;2023-03-03T07:48:33;0.20;;;0.20;;
14231;SDS011;7200;52.194;9.900;2023-03-03T07:51:02;0.97;;;0.97;;
14231;SDS011;7200;52.194;9.900;2023-03-03T07:53:30;4.07;;;3.37;;
14231;SDS011;7200;52.194;9.900;2023-03-03T07:56:02;0.27;;;0.27;;
14231;SDS011;7200;52.194;9.900;2023-03-03T07:58:37;0.27;;;0.27;;
14231;SDS011;7200;52.194;9.900;2023-03-03T08:03:48;3.73;;;1.27;;
14231;SDS011;7200;52.194;9.900;2023-03-03T08:06:34;0.10;;;0.10;;
14231;SDS011;7200;52.194;9.900;2023-03-03T08:11:33;10.40;;;4.37;;
14231;SDS011;7200;52.194;9.900;2023-03-03T08:13:58;0.13;;;0.13;;
14231;SDS011;7200;52.194;9.900;2023-03-03T08:16:29;5.80;;;5.40;;
14231;SDS011;7200;52.194;9.900;2023-03-03T08:19:02;5.30;;;4.80;;
14231;SDS011;7200;52.194;9.900;2023-03-03T08:21:28;3.00;;;2.50;;
14231;SDS011;7200;52.194;9.900;2023-03-03T08:23:55;5.30;;;2.30;;
14231;SDS011;7200;52.194;9.900;2023-03-03T08:26:21;18.33;;;5.23;;
14231;SDS011;7200;52.194;9.900;2023-03-03T08:28:47;3.23;;;3.03;;
14231;SDS011;7200;52.194;9.900;2023-03-03T08:31:13;39.03;;;9.20;;
14231;SDS011;7200;52.194;9.900;2023-03-03T08:33:39;32.93;;;11.97;;
14231;SDS011;7200;52.194;9.900;2023-03-03T08:36:05;8.33;;;4.20;;
14231;SDS011;7200;52.194;9.900;2023-03-03T08:38:31;7.03;;;3.10;;
14231;SDS011;7200;52.194;9.900;2023-03-03T08:40:57;0.40;;;0.40;;
14231;SDS011;7200;52.194;9.900;2023-03-03T08:43:23;19.93;;;7.50;;
14231;SDS011;7200;52.194;9.900;2023-03-03T08:45:50;13.27;;;5.50;;
14231;SDS011;7200;52.194;9.900;2023-03-03T08:48:18;29.23;;;6.63;;
14231;SDS011;7200;52.194;9.900;2023-03-03T08:50:44;5.20;;;3.37;;
14231;SDS011;7200;52.194;9.900;2023-03-03T08:53:10;17.57;;;7.27;;
14231;SDS011;7200;52.194;9.900;2023-03-03T08:55:37;12.13;;;3.30;;
14231;SDS011;7200;52.194;9.900;2023-03-03T08:58:03;0.63;;;0.63;;
14231;SDS011;7200;52.194;9.900;2023-03-03T09:00:28;2.57;;;2.37;;
14231;SDS011;7200;52.194;9.900;2023-03-03T09:02:54;3.93;;;1.73;;
14231;SDS011;7200;52.194;9.900;2023-03-03T09:05:20;2.23;;;2.17;;
14231;SDS011;7200;52.194;9.900;2023-03-03T09:07:47;0.90;;;0.83;;
14231;SDS011;7200;52.194;9.900;2023-03-03T09:10:14;13.93;;;6.43;;
14231;SDS011;7200;52.194;9.900;2023-03-03T09:12:42;0.83;;;0.83;;
14231;SDS011;7200;52.194;9.900;2023-03-03T09:15:25;15.03;;;6.73;;
14231;SDS011;7200;52.194;9.900;2023-03-03T09:17:51;14.23;;;11.63;;
14231;SDS011;7200;52.194;9.900;2023-03-03T09:23:27;2.53;;;0.80;;
14231;SDS011;7200;52.194;9.900;2023-03-03T09:25:53;0.10;;;0.10;;
14231;SDS011;7200;52.194;9.900;2023-03-03T09:28:25;4.23;;;3.90;;
14231;SDS011;7200;52.194;9.900;2023-03-03T09:30:53;8.77;;;4.53;;
14231;SDS011;7200;52.194;9.900;2023-03-03T09:33:28;18.60;;;8.27;;
14231;SDS011;7200;52.194;9.900;2023-03-03T09:36:11;6.33;;;2.47;;
14231;SDS011;7200;52.194;9.900;2023-03-03T09:38:47;7.07;;;6.70;;
14231;SDS011;7200;52.194;9.900;2023-03-03T09:52:20;22.73;;;9.10;;
14231;SDS011;7200;52.194;9.900;2023-03-03T09:57:50;33.83;;;11.20;;
14231;SDS011;7200;52.194;9.900;2023-03-03T10:11:22;0.10;;;0.10;;
14231;SDS011;7200;52.194;9.900;2023-03-03T10:14:12;16.40;;;3.93;;
14231;SDS011;7200;52.194;9.900;2023-03-03T10:17:00;0.53;;;0.53;;
14231;SDS011;7200;52.194;9.900;2023-03-03T10:22:07;0.90;;;0.90;;
14231;SDS011;7200;52.194;9.900;2023-03-03T10:27:41;3.17;;;1.57;;
14231;SDS011;7200;52.194;9.900;2023-03-03T10:30:16;15.63;;;1.07;;
14231;SDS011;7200;52.194;9.900;2023-03-03T10:38:51;4.53;;;3.13;;
14231;SDS011;7200;52.194;9.900;2023-03-03T10:52:50;11.23;;;4.60;;
14231;SDS011;7200;52.194;9.900;2023-03-03T11:07:39;12.33;;;4.93;;
14231;SDS011;7200;52.194;9.900;2023-03-03T11:16:24;21.07;;;8.97;;
14231;SDS011;7200;52.194;9.900;2023-03-03T11:33:01;28.27;;;10.30;;
14231;SDS011;7200;52.194;9.900;2023-03-03T11:35:35;0.97;;;0.80;;
14231;SDS011;7200;52.194;9.900;2023-03-03T11:40:48;8.70;;;4.87;;
14231;SDS011;7200;52.194;9.900;2023-03-03T11:43:19;16.30;;;8.57;;
14231;SDS011;7200;52.194;9.900;2023-03-03T11:45:52;18.43;;;8.53;;
14231;SDS011;7200;52.194;9.900;2023-03-03T11:48:29;15.53;;;7.07;;
14231;SDS011;7200;52.194;9.900;2023-03-03T11:51:04;30.53;;;12.67;;
14231;SDS011;7200;52.194;9.900;2023-03-03T11:53:39;9.70;;;6.37;;
14231;SDS011;7200;52.194;9.900;2023-03-03T11:56:27;6.93;;;5.57;;
14231;SDS011;7200;52.194;9.900;2023-03-03T12:01:55;0.30;;;0.30;;
14231;SDS011;7200;52.194;9.900;2023-03-03T12:04:34;16.03;;;7.43;;
14231;SDS011;7200;52.194;9.900;2023-03-03T12:12:59;4.07;;;3.40;;
14231;SDS011;7200;52.194;9.900;2023-03-03T12:15:34;17.80;;;5.30;;
14231;SDS011;7200;52.194;9.900;2023-03-03T12:18:12;13.03;;;6.20;;
14231;SDS011;7200;52.194;9.900;2023-03-03T12:26:12;14.23;;;5.80;;
14231;SDS011;7200;52.194;9.900;2023-03-03T12:28:52;1.20;;;1.03;;
14231;SDS011;7200;52.194;9.900;2023-03-03T12:31:28;6.50;;;4.00;;
14231;SDS011;7200;52.194;9.900;2023-03-03T12:34:13;16.23;;;7.77;;
14231;SDS011;7200;52.194;9.900;2023-03-03T12:47:36;15.57;;;7.80;;
14231;SDS011;7200;52.194;9.900;2023-03-03T13:00:54;8.20;;;5.97;;
14231;SDS011;7200;52.194;9.900;2023-03-03T13:06:08;6.53;;;1.87;;
14231;SDS011;7200;52.194;9.900;2023-03-03T13:20:00;2.87;;;1.93;;
14231;SDS011;7200;52.194;9.900;2023-03-03T13:27:58;0.50;;;0.50;;
14231;SDS011;7200;52.194;9.900;2023-03-03T13:30:29;1.93;;;1.83;;
14231;SDS011;7200;52.194;9.900;2023-03-03T13:33:19;5.73;;;2.83;;
14231;SDS011;7200;52.194;9.900;2023-03-03T13:36:00;8.00;;;4.87;;
14231;SDS011;7200;52.194;9.900;2023-03-03T13:38:31;9.33;;;5.10;;
14231;SDS011;7200;52.194;9.900;2023-03-03T13:43:57;5.57;;;2.10;;
14231;SDS011;7200;52.194;9.900;2023-03-03T13:51:59;8.30;;;5.80;;
14231;SDS011;7200;52.194;9.900;2023-03-03T13:59:57;0.33;;;0.33;;
14231;SDS011;7200;52.194;9.900;2023-03-03T14:03:45;1.80;;;1.20;;
14231;SDS011;7200;52.194;9.900;2023-03-03T14:06:03;5.23;;;2.53;;
14231;SDS011;7200;52.194;9.900;2023-03-03T14:13:51;11.53;;;6.27;;
14231;SDS011;7200;52.194;9.900;2023-03-03T14:16:35;9.60;;;5.47;;
14231;SDS011;7200;52.194;9.900;2023-03-03T14:19:30;10.80;;;5.27;;
14231;SDS011;7200;52.194;9.900;2023-03-03T14:27:33;11.23;;;7.07;;
14231;SDS011;7200;52.194;9.900;2023-03-03T14:38:16;3.60;;;2.67;;
14231;SDS011;7200;52.194;9.900;2023-03-03T14:40:44;1.63;;;1.57;;
14231;SDS011;7200;52.194;9.900;2023-03-03T14:43:18;0.87;;;0.87;;
14231;SDS011;7200;52.194;9.900;2023-03-03T14:45:47;9.53;;;5.50;;
14231;SDS011;7200;52.194;9.900;2023-03-03T14:50:53;2.63;;;2.20;;
14231;SDS011;7200;52.194;9.900;2023-03-03T14:56:11;3.47;;;3.27;;
14231;SDS011;7200;52.194;9.900;2023-03-03T14:58:39;2.50;;;2.10;;
14231;SDS011;7200;52.194;9.900;2023-03-03T15:01:06;0.27;;;0.27;;
14231;SDS011;7200;52.194;9.900;2023-03-03T15:03:36;1.87;;;1.53;;
14231;SDS011;7200;52.194;9.900;2023-03-03T15:06:11;6.93;;;3.93;;
14231;SDS011;7200;52.194;9.900;2023-03-03T15:08:40;1.83;;;1.73;;
14231;SDS011;7200;52.194;9.900;2023-03-03T15:13:41;12.03;;;6.67;;
14231;SDS011;7200;52.194;9.900;2023-03-03T15:16:16;11.53;;;4.87;;
14231;SDS011;7200;52.194;9.900;2023-03-03T15:18:54;10.33;;;4.07;;
14231;SDS011;7200;52.194;9.900;2023-03-03T15:24:49;7.87;;;4.53;;
14231;SDS011;7200;52.194;9.900;2023-03-03T15:27:27;6.37;;;1.83;;
14231;SDS011;7200;52.194;9.900;2023-03-03T15:30:23;3.83;;;2.23;;
14231;SDS011;7200;52.194;9.900;2023-03-03T15:35:42;2.83;;;2.47;;
14231;SDS011;7200;52.194;9.900;2023-03-03T15:38:20;5.60;;;4.03;;
14231;SDS011;7200;52.194;9.900;2023-03-03T15:40:49;2.33;;;2.03;;
14231;SDS011;7200;52.194;9.900;2023-03-03T15:46:05;1.53;;;1.40;;
14231;SDS011;7200;52.194;9.900;2023-03-03T15:51:30;4.43;;;1.60;;
14231;SDS011;7200;52.194;9.900;2023-03-03T15:59:23;1.73;;;1.30;;
14231;SDS011;7200;52.194;9.900;2023-03-03T16:04:52;7.27;;;4.10;;
14231;SDS011;7200;52.194;9.900;2023-03-03T16:13:19;12.50;;;3.70;;
14231;SDS011;7200;52.194;9.900;2023-03-03T16:15:55;0.80;;;0.80;;
14231;SDS011;7200;52.194;9.900;2023-03-03T16:18:49;7.50;;;3.57;;
14231;SDS011;7200;52.194;9.900;2023-03-03T16:21:32;9.00;;;4.80;;
14231;SDS011;7200;52.194;9.900;2023-03-03T16:24:27;4.57;;;2.83;;
14231;SDS011;7200;52.194;9.900;2023-03-03T16:27:23;5.30;;;3.87;;
14231;SDS011;7200;52.194;9.900;2023-03-03T16:36:01;11.47;;;5.20;;
14231;SDS011;7200;52.194;9.900;2023-03-03T16:38:37;9.53;;;1.87;;
14231;SDS011;7200;52.194;9.900;2023-03-03T16:41:17;3.37;;;1.83;;
14231;SDS011;7200;52.194;9.900;2023-03-03T16:43:55;0.20;;;0.20;;
14231;SDS011;7200;52.194;9.900;2023-03-03T16:46:45;2.60;;;2.40;;
14231;SDS011;7200;52.194;9.900;2023-03-03T16:52:11;0.50;;;0.50;;
14231;SDS011;7200;52.194;9.900;2023-03-03T16:54:44;1.93;;;1.83;;
14231;SDS011;7200;52.194;9.900;2023-03-03T17:24:23;6.00;;;5.40;;
14231;SDS011;7200;52.194;9.900;2023-03-03T17:29:35;30.90;;;14.93;;
14231;SDS011;7200;52.194;9.900;2023-03-03T17:32:33;14.60;;;8.73;;
14231;SDS011;7200;52.194;9.900;2023-03-03T17:38:16;12.37;;;4.90;;
14231;SDS011;7200;52.194;9.900;2023-03-03T17:41:10;4.50;;;3.97;;
14231;SDS011;7200;52.194;9.900;2023-03-03T17:46:52;10.03;;;6.23;;
14231;SDS011;7200;52.194;9.900;2023-03-03T17:52:00;8.73;;;5.93;;
14231;SDS011;7200;52.194;9.900;2023-03-03T18:03:36;35.47;;;8.47;;
14231;SDS011;7200;52.194;9.900;2023-03-03T18:06:15;39.00;;;14.47;;
14231;SDS011;7200;52.194;9.900;2023-03-03T18:09:15;22.67;;;10.83;;
14231;SDS011;7200;52.194;9.900;2023-03-03T18:12:10;17.03;;;9.20;;
14231;SDS011;7200;52.194;9.900;2023-03-03T18:15:06;11.67;;;5.50;;
14231;SDS011;7200;52.194;9.900;2023-03-03T18:17:46;26.67;;;11.47;;
14231;SDS011;7200;52.194;9.900;2023-03-03T18:25:56;26.23;;;11.10;;
14231;SDS011;7200;52.194;9.900;2023-03-03T18:28:36;29.93;;;11.10;;
14231;SDS011;7200;52.194;9.900;2023-03-03T18:31:20;29.63;;;13.03;;
14231;SDS011;7200;52.194;9.900;2023-03-03T18:36:50;46.87;;;20.03;;
14231;SDS011;7200;52.194;9.900;2023-03-03T18:39:35;35.40;;;15.63;;
14231;SDS011;7200;52.194;9.900;2023-03-03T18:42:07;24.30;;;11.90;;
14231;SDS011;7200;52.194;9.900;2023-03-03T18:44:36;22.37;;;9.87;;
14231;SDS011;7200;52.194;9.900;2023-03-03T18:47:01;31.33;;;13.20;;
14231;SDS011;7200;52.194;9.900;2023-03-03T18:52:30;30.13;;;16.50;;
14231;SDS011;7200;52.194;9.900;2023-03-03T18:54:59;46.17;;;21.33;;
14231;SDS011;7200;52.194;9.900;2023-03-03T18:57:34;21.90;;;11.43;;
14231;SDS011;7200;52.194;9.900;2023-03-03T19:00:11;52.63;;;24.07;;
14231;SDS011;7200;52.194;9.900;2023-03-03T19:02:55;39.60;;;18.90;;
14231;SDS011;7200;52.194;9.900;2023-03-03T19:05:23;20.17;;;9.73;;
14231;SDS011;7200;52.194;9.900;2023-03-03T19:08:01;39.40;;;14.83;;
14231;SDS011;7200;52.194;9.900;2023-03-03T19:10:49;35.23;;;15.50;;
14231;SDS011;7200;52.194;9.900;2023-03-03T19:16:01;40.67;;;19.50;;
14231;SDS011;7200;52.194;9.900;2023-03-03T19:22:19;40.77;;;18.20;;
14231;SDS011;7200;52.194;9.900;2023-03-03T19:23:54;28.23;;;13.77;;
14231;SDS011;7200;52.194;9.900;2023-03-03T19:37:00;26.87;;;13.17;;
14231;SDS011;7200;52.194;9.900;2023-03-03T19:42:21;25.50;;;12.43;;
14231;SDS011;7200;52.194;9.900;2023-03-03T19:44:58;16.97;;;9.10;;
14231;SDS011;7200;52.194;9.900;2023-03-03T19:50:06;36.50;;;17.33;;
14231;SDS011;7200;52.194;9.900;2023-03-03T20:00:54;15.67;;;6.13;;
14231;SDS011;7200;52.194;9.900;2023-03-03T20:09:12;21.73;;;11.37;;
14231;SDS011;7200;52.194;9.900;2023-03-03T20:11:51;28.77;;;15.60;;
14231;SDS011;7200;52.194;9.900;2023-03-03T20:14:33;23.27;;;13.67;;
14231;SDS011;7200;52.194;9.900;2023-03-03T20:22:46;15.87;;;9.83;;
14231;SDS011;7200;52.194;9.900;2023-03-03T20:25:26;25.13;;;15.37;;
14231;SDS011;7200;52.194;9.900;2023-03-03T20:28:05;16.47;;;10.90;;
14231;SDS011;7200;52.194;9.900;2023-03-03T20:30:52;16.67;;;10.87;;
14231;SDS011;7200;52.194;9.900;2023-03-03T20:49:52;22.40;;;12.23;;
14231;SDS011;7200;52.194;9.900;2023-03-03T20:52:34;23.17;;;10.83;;
14231;SDS011;7200;52.194;9.900;2023-03-03T20:55:33;18.77;;;11.80;;
14231;SDS011;7200;52.194;9.900;2023-03-03T20:58:12;13.20;;;7.20;;
14231;SDS011;7200;52.194;9.900;2023-03-03T21:03:32;22.70;;;12.43;;
14231;SDS011;7200;52.194;9.900;2023-03-03T21:06:05;9.50;;;6.27;;
14231;SDS011;7200;52.194;9.900;2023-03-03T21:08:38;21.17;;;11.87;;
14231;SDS011;7200;52.194;9.900;2023-03-03T21:11:07;29.07;;;12.77;;
14231;SDS011;7200;52.194;9.900;2023-03-03T21:18:40;24.83;;;13.17;;
14231;SDS011;7200;52.194;9.900;2023-03-03T21:21:10;17.33;;;12.17;;
14231;SDS011;7200;52.194;9.900;2023-03-03T21:23:35;15.80;;;10.10;;
14231;SDS011;7200;52.194;9.900;2023-03-03T21:26:00;16.87;;;10.30;;
14231;SDS011;7200;52.194;9.900;2023-03-03T21:28:32;37.50;;;16.73;;
14231;SDS011;7200;52.194;9.900;2023-03-03T21:33:43;21.43;;;12.67;;
14231;SDS011;7200;52.194;9.900;2023-03-03T21:36:21;20.33;;;8.47;;
14231;SDS011;7200;52.194;9.900;2023-03-03T21:38:47;22.57;;;12.10;;
14231;SDS011;7200;52.194;9.900;2023-03-03T21:41:14;16.97;;;9.23;;
14231;SDS011;7200;52.194;9.900;2023-03-03T21:43:45;19.77;;;12.10;;